createdAt,value
2023-04-04T00:05:23.457Z,26.49163879598662
2023-04-04T00:12:50.245Z,20.762541806020067
2023-04-04T00:19:11.110Z,17.859531772575252
2023-04-04T00:34:14.182Z,20.57190635451505
2023-04-04T00:40:33.496Z,21.107023411371237
2023-04-04T00:46:55.985Z,19.819397993311036
2023-04-04T00:53:16.642Z,17.23076923076923
2023-04-04T00:59:36.268Z,22.876254180602007
2023-04-04T01:05:56.357Z,20.05351170568562
2023-04-04T01:12:16.169Z,21.046822742474916
2023-04-04T01:19:51.947Z,18.899665551839465
2023-04-04T01:26:10.695Z,22.73913043478261
2023-04-04T01:32:29.573Z,18.8561872909699
2023-04-04T01:38:49.061Z,19.929765886287626
2023-04-04T01:45:08.917Z,17.903010033444815
2023-04-04T01:51:27.761Z,20.505016722408026
2023-04-04T01:57:48.688Z,20.414715719063544
2023-04-04T02:08:09.661Z,20.190635451505017
2023-04-04T02:14:29.586Z,15.40133779264214
2023-04-04T02:20:50.181Z,17.448160535117058
2023-04-04T02:27:10.256Z,16.782608695652176
2023-04-04T02:33:29.328Z,17.551839464882942
2023-04-04T02:40:31.197Z,20.120401337792643
2023-04-04T02:51:27.749Z,20.006688963210703
2023-04-04T03:03:44.351Z,18.698996655518396
2023-04-04T03:10:04.070Z,18.96989966555184
2023-04-04T03:22:42.739Z,21.14715719063545
2023-04-04T03:29:02.999Z,22.779264214046822
2023-04-04T03:35:22.053Z,18.46153846153846
2023-04-04T03:43:24.809Z,19.755852842809364
2023-04-04T03:49:43.649Z,24.65886287625418
2023-04-04T04:01:15.999Z,24.585284280936456
2023-04-04T04:07:36.174Z,22.5752508361204
2023-04-04T04:13:56.846Z,21.23076923076923
2023-04-04T04:20:16.810Z,23.123745819397993
2023-04-04T04:31:54.449Z,25.06020066889632
2023-04-04T04:50:01.617Z,29.665551839464882
2023-04-04T04:56:20.889Z,20.354515050167223
2023-04-04T05:02:41.179Z,33.5819397993311
2023-04-04T05:17:30.711Z,34.77591973244147
2023-04-04T05:23:54.755Z,34.60535117056856
2023-04-04T05:30:18.719Z,31.52173913043478
2023-04-04T05:36:39.227Z,28.441471571906355
2023-04-04T05:48:31.953Z,29.066889632107024
2023-04-04T05:54:52.614Z,32.05016722408027
2023-04-04T06:01:14.441Z,32.72240802675585
2023-04-04T06:12:41.779Z,30.448160535117058
2023-04-04T06:19:03.575Z,29.23076923076923
2023-04-04T06:25:24.136Z,33.0066889632107
2023-04-04T06:31:44.979Z,37.32107023411371
2023-04-04T06:38:06.295Z,36.07357859531773
2023-04-04T06:44:27.388Z,33.40468227424749
2023-04-04T06:50:48.825Z,34.812709030100336
2023-04-04T06:57:10.477Z,29.678929765886288
2023-04-04T07:03:31.827Z,28.45484949832776
2023-04-04T07:09:52.830Z,27.60535117056856
2023-04-04T07:16:13.628Z,24.82274247491639
2023-04-04T07:27:06.479Z,23.615384615384617
2023-04-04T07:33:27.601Z,28.51505016722408
2023-04-04T07:39:48.714Z,26.585284280936456
2023-04-04T07:46:09.057Z,26.578595317725753
2023-04-04T07:52:28.099Z,21.2809364548495
2023-04-04T07:58:47.421Z,20.103678929765888
2023-04-04T08:05:06.814Z,19.464882943143813
2023-04-04T08:11:26.240Z,19.17056856187291
2023-04-04T08:17:46.058Z,19.91304347826087
2023-04-04T08:24:06.700Z,19.82608695652174
2023-04-04T08:30:26.007Z,22.53846153846154
2023-04-04T08:46:51.426Z,27.63545150501672
2023-04-04T08:53:11.042Z,24.525083612040135
2023-04-04T08:59:30.497Z,19.795986622073578
2023-04-04T09:05:50.131Z,23.63545150501672
2023-04-04T09:13:51.680Z,18.598662207357858
2023-04-04T09:20:11.312Z,17.792642140468228
2023-04-04T09:29:07.312Z,16.183946488294314
2023-04-04T09:35:28.799Z,19.889632107023413
2023-04-04T09:41:48.219Z,14.100334448160535
2023-04-04T09:48:08.281Z,15.42809364548495
2023-04-04T09:54:30.281Z,15.806020066889632
2023-04-04T10:00:50.303Z,15.013377926421406
2023-04-04T10:07:09.612Z,13.57190635451505
2023-04-04T10:13:28.881Z,16.956521739130434
2023-04-04T10:19:48.914Z,15.946488294314381
2023-04-04T10:26:08.835Z,13.080267558528428
2023-04-04T10:32:28.363Z,15.438127090301004
2023-04-04T10:38:47.825Z,17.036789297658864
2023-04-04T10:45:19.983Z,19.193979933110366
2023-04-04T10:51:52.874Z,21.471571906354516
2023-04-04T10:58:15.737Z,24.13377926421405
2023-04-04T11:04:35.273Z,18.732441471571907
2023-04-04T11:11:49.997Z,21.17391304347826
2023-04-04T11:22:26.290Z,21.876254180602007
2023-04-04T11:28:46.576Z,24.82608695652174
2023-04-04T11:35:06.541Z,20.60535117056856
2023-04-04T11:41:26.183Z,22.46153846153846
2023-04-04T11:47:45.501Z,20.672240802675585
2023-04-04T11:54:06.209Z,19.96989966555184
2023-04-04T12:00:26.192Z,31.471571906354516
2023-04-04T12:07:08.127Z,26.983277591973245
2023-04-04T12:13:28.042Z,25.39464882943144
2023-04-04T12:19:48.500Z,21.705685618729095
2023-04-04T12:26:09.102Z,25.93645484949833
2023-04-04T12:32:29.311Z,30.160535117056856
2023-04-04T12:38:49.588Z,25.903010033444815
2023-04-04T12:45:09.794Z,24.79933110367893
2023-04-04T12:51:31.243Z,26.321070234113712
2023-04-04T12:58:58.639Z,25.140468227424748
2023-04-04T13:05:18.828Z,27.561872909698998
2023-04-04T13:11:38.898Z,27.451505016722408
2023-04-04T13:17:58.228Z,25.48160535117057
2023-04-04T13:24:17.900Z,27.91638795986622
2023-04-04T13:35:51.545Z,29.725752508361204
2023-04-04T13:42:11.919Z,45.03010033444816
2023-04-04T13:48:31.716Z,33.197324414715716
2023-04-04T13:54:51.152Z,38.33779264214047
2023-04-04T14:18:31.310Z,34.264214046822744
2023-04-04T14:24:51.707Z,30.642140468227424
2023-04-04T14:31:56.963Z,24.361204013377925
2023-04-04T14:38:17.157Z,26.160535117056856
2023-04-04T14:44:37.143Z,28.354515050167223
2023-04-04T14:50:56.876Z,32.27759197324415
2023-04-04T14:57:16.574Z,27.876254180602007
2023-04-04T15:06:19.335Z,30.792642140468228
2023-04-04T15:12:41.858Z,26.22742474916388
2023-04-04T15:22:26.662Z,29.963210702341136
2023-04-04T15:32:53.910Z,27.662207357859533
2023-04-04T15:39:13.977Z,46.01003344481605
2023-04-04T15:45:33.702Z,30.39799331103679
2023-04-04T15:51:53.075Z,34.66555183946488
2023-04-04T15:58:12.904Z,38.09364548494983
2023-04-04T16:09:00.818Z,30.732441471571907
2023-04-04T16:15:21.164Z,34.35451505016722
2023-04-04T16:21:41.846Z,28.7190635451505
2023-04-04T16:32:26.127Z,38.40468227424749
2023-04-04T16:38:47.418Z,37.862876254180605
2023-04-04T16:45:09.179Z,28.929765886287626
2023-04-04T16:51:30.564Z,37.936454849498325
2023-04-04T16:57:50.144Z,36.90969899665552
2023-04-04T17:04:09.870Z,28.528428093645484
2023-04-04T17:10:30.051Z,27.02675585284281
2023-04-04T17:16:51.674Z,32.52842809364549
2023-04-04T17:23:13.792Z,35.07692307692308
2023-04-04T17:29:34.878Z,30.97993311036789
2023-04-04T17:35:56.521Z,33.72909698996656
2023-04-04T17:42:18.687Z,35.89966555183946
2023-04-04T17:48:39.381Z,38.30434782608695
2023-04-04T17:55:01.250Z,46.28428093645485
2023-04-04T18:01:21.645Z,44.08695652173913
2023-04-04T18:11:54.282Z,44.936454849498325
2023-04-04T18:18:14.918Z,75.24080267558529
2023-04-04T18:26:39.386Z,218.29765886287626
2023-04-04T18:33:02.917Z,101.06020066889631
2023-04-04T18:39:22.242Z,58.53846153846154
2023-04-04T18:45:41.127Z,47.04347826086956
2023-04-04T18:55:36.772Z,35.635451505016725
2023-04-04T19:01:55.251Z,35.11371237458194
2023-04-04T19:24:15.320Z,83.27759197324414
2023-04-04T19:30:35.852Z,77.14046822742475
2023-04-04T19:36:55.779Z,66.28428093645485
2023-04-04T19:43:15.762Z,66.78260869565217
2023-04-04T19:49:36.729Z,48.16053511705686
2023-04-04T20:01:59.758Z,64.19732441471572
2023-04-04T20:08:23.061Z,58.903010033444815
2023-04-04T20:14:43.732Z,61.87959866220736
2023-04-04T20:21:04.035Z,77.47491638795987
2023-04-04T20:27:24.428Z,74.02341137123746
2023-04-04T20:33:43.906Z,70.18729096989966
2023-04-04T20:40:04.617Z,78.71571906354515
2023-04-04T20:46:26.948Z,80.123745819398
2023-04-04T20:53:43.669Z,85.4314381270903
2023-04-04T21:04:27.406Z,69.09030100334448
2023-04-04T21:10:47.064Z,64.50501672240803
2023-04-04T21:17:07.494Z,67.9933110367893
2023-04-04T21:23:28.579Z,71.54515050167224
2023-04-04T21:32:47.747Z,65.59197324414716
2023-04-04T21:39:07.937Z,69.61204013377926
2023-04-04T21:45:29.649Z,74.42809364548495
2023-04-04T21:51:50.690Z,82.68896321070234
2023-04-04T21:58:10.335Z,84.2876254180602
2023-04-04T22:04:29.860Z,88.5886287625418
2023-04-04T22:10:50.996Z,69.61872909698997
2023-04-04T22:17:11.759Z,76.44147157190635
2023-04-04T22:23:32.577Z,66.87290969899665
2023-04-04T22:33:00.520Z,61.98327759197324
2023-04-04T22:44:16.846Z,59.13377926421405
2023-04-04T22:50:38.391Z,63.65217391304348
2023-04-04T22:57:01.865Z,64.80602006688963
2023-04-04T23:07:16.162Z,62.71571906354515
2023-04-04T23:13:37.366Z,66.70234113712375
2023-04-04T23:19:57.560Z,68.8361204013378
2023-04-04T23:27:05.095Z,71.80936454849498
2023-04-04T23:33:26.842Z,64.05351170568562
2023-04-04T23:39:47.698Z,64.12709030100335
2023-04-04T23:46:08.845Z,70.51170568561874
2023-04-04T23:52:29.467Z,74.4448160535117
